Time;durP1;ratioP1;P1;durP2;ratioP2;P2;SDS_P1;SDS_P2;PMS_P1;PMS_P2;Temp;Humidity;BMP_temperature;BMP_pressure;BME280_temperature;BME280_humidity;BME280_pressure;Samples;Min_cycle;Max_cycle;Signal;HPM_P1;HPM_P2
2023/04/06 00:01:52;;;;;;;7.63;3.10;;;;;;;;;;6209218;23;20163;-91
2023/04/06 00:04:58;;;;;;;8.23;3.50;;;;;;;;;;6208047;23;20171;-90
2023/04/06 00:08:03;;;;;;;7.70;3.40;;;;;;;;;;6208291;23;20205;-92
2023/04/06 00:11:08;;;;;;;9.10;3.43;;;;;;;;;;6207963;23;20202;-89
2023/04/06 00:14:17;;;;;;;5.73;3.13;;;;;;;;;;6208944;23;20355;-90
2023/04/06 00:17:22;;;;;;;7.73;3.70;;;;;;;;;;6208814;23;20168;-89
2023/04/06 00:20:27;;;;;;;11.53;3.53;;;;;;;;;;6209889;23;20187;-92
2023/04/06 00:23:40;;;;;;;10.93;3.43;;;;;;;;;;6209472;23;20719;-92
2023/04/06 00:26:46;;;;;;;8.97;3.87;;;;;;;;;;6208041;23;20226;-91
2023/04/06 00:29:52;;;;;;;6.63;3.40;;;;;;;;;;6209425;23;20199;-90
2023/04/06 00:32:58;;;;;;;7.00;3.57;;;;;;;;;;6208478;23;20174;-92
2023/04/06 00:36:03;;;;;;;8.87;3.83;;;;;;;;;;6211843;23;20243;-90
2023/04/06 00:39:08;;;;;;;9.47;3.23;;;;;;;;;;6211211;23;20170;-90
2023/04/06 00:42:14;;;;;;;9.90;3.80;;;;;;;;;;6210109;23;20175;-90
2023/04/06 00:45:23;;;;;;;9.67;3.53;;;;;;;;;;6210151;23;20170;-88
2023/04/06 00:48:33;;;;;;;7.13;3.47;;;;;;;;;;6210208;23;20195;-92
2023/04/06 00:51:38;;;;;;;8.10;3.30;;;;;;;;;;6210587;23;20183;-90
2023/04/06 00:54:44;;;;;;;11.33;3.43;;;;;;;;;;6211169;23;20174;-93
2023/04/06 00:57:50;;;;;;;8.77;3.97;;;;;;;;;;6210450;23;20694;-89
2023/04/06 01:00:58;;;;;;;13.13;4.27;;;;;;;;;;6211543;23;20167;-88
2023/04/06 01:04:03;;;;;;;8.83;4.30;;;;;;;;;;6211764;23;20164;-92
2023/04/06 01:07:11;;;;;;;11.53;4.10;;;;;;;;;;6210891;23;20686;-91
2023/04/06 01:10:25;;;;;;;13.60;3.60;;;;;;;;;;6211216;23;20171;-91
2023/04/06 01:13:33;;;;;;;13.87;3.63;;;;;;;;;;6210849;23;20163;-91
2023/04/06 01:16:44;;;;;;;12.20;3.27;;;;;;;;;;6212453;23;20158;-90
2023/04/06 01:19:53;;;;;;;7.83;3.60;;;;;;;;;;6211583;23;20188;-92
2023/04/06 01:23:06;;;;;;;7.83;3.30;;;;;;;;;;6210331;23;20174;-89
2023/04/06 01:26:13;;;;;;;8.47;3.50;;;;;;;;;;6209424;23;20199;-88
2023/04/06 01:29:19;;;;;;;7.97;3.37;;;;;;;;;;6208590;23;20162;-88
2023/04/06 01:32:25;;;;;;;10.13;3.53;;;;;;;;;;6210282;23;20175;-92
2023/04/06 01:35:31;;;;;;;10.07;3.60;;;;;;;;;;6211313;23;20168;-91
2023/04/06 01:38:51;;;;;;;8.93;3.40;;;;;;;;;;6211330;23;20175;-89
2023/04/06 01:42:00;;;;;;;7.33;3.30;;;;;;;;;;6211189;23;20214;-92
2023/04/06 01:45:07;;;;;;;5.10;3.03;;;;;;;;;;6211553;23;20162;-88
2023/04/06 01:48:33;;;;;;;9.13;3.80;;;;;;;;;;6209422;23;20230;-90
2023/04/06 01:51:42;;;;;;;8.37;3.40;;;;;;;;;;6210491;23;20226;-91
2023/04/06 01:54:52;;;;;;;9.40;3.80;;;;;;;;;;6210209;23;20167;-89
2023/04/06 01:58:16;;;;;;;6.50;3.13;;;;;;;;;;6209649;23;20398;-88
2023/04/06 02:01:22;;;;;;;7.60;3.47;;;;;;;;;;6208941;23;20607;-91
2023/04/06 02:04:32;;;;;;;6.37;3.30;;;;;;;;;;6209950;23;20171;-91
2023/04/06 02:07:47;;;;;;;6.50;3.43;;;;;;;;;;6207904;23;20735;-93
2023/04/06 02:10:58;;;;;;;9.00;3.23;;;;;;;;;;6208064;23;20281;-91
2023/04/06 02:14:28;;;;;;;11.90;3.73;;;;;;;;;;6207977;23;20163;-89
2023/04/06 02:17:37;;;;;;;14.47;4.00;;;;;;;;;;6209005;23;20270;-93
2023/04/06 02:20:46;;;;;;;11.10;4.17;;;;;;;;;;6209555;23;20168;-92
2023/04/06 02:23:51;;;;;;;36.80;10.10;;;;;;;;;;6209255;23;20164;-89
2023/04/06 02:26:58;;;;;;;57.53;14.90;;;;;;;;;;6209409;23;20306;-95
2023/04/06 02:30:03;;;;;;;51.33;12.47;;;;;;;;;;6210477;23;20167;-90
2023/04/06 02:33:09;;;;;;;36.87;9.40;;;;;;;;;;6209969;23;20299;-92
2023/04/06 02:36:21;;;;;;;10.17;4.27;;;;;;;;;;6210196;23;20167;-92
2023/04/06 02:39:26;;;;;;;18.33;5.10;;;;;;;;;;6211347;23;20232;-89
2023/04/06 02:42:34;;;;;;;16.97;5.07;;;;;;;;;;6212103;23;20171;-90
2023/04/06 02:45:41;;;;;;;17.93;5.33;;;;;;;;;;6214173;23;20159;-93
2023/04/06 02:48:50;;;;;;;17.63;5.53;;;;;;;;;;6212053;23;20203;-91
2023/04/06 02:51:55;;;;;;;14.97;5.73;;;;;;;;;;6213142;23;20167;-90
2023/04/06 02:55:07;;;;;;;12.07;4.43;;;;;;;;;;6212160;23;20155;-93
2023/04/06 02:58:15;;;;;;;18.10;5.63;;;;;;;;;;6210781;23;20155;-91
2023/04/06 03:01:27;;;;;;;12.47;4.70;;;;;;;;;;6213121;23;20215;-89
2023/04/06 03:04:37;;;;;;;9.90;4.53;;;;;;;;;;6212506;23;20193;-93
2023/04/06 03:07:46;;;;;;;14.30;4.37;;;;;;;;;;6210360;23;20238;-89
2023/04/06 03:11:16;;;;;;;13.13;3.70;;;;;;;;;;6210636;23;20291;-90
2023/04/06 03:14:24;;;;;;;9.97;4.50;;;;;;;;;;6211941;23;20156;-91
2023/04/06 03:17:29;;;;;;;8.33;3.60;;;;;;;;;;6210750;23;20171;-90
2023/04/06 03:20:57;;;;;;;13.73;4.70;;;;;;;;;;6209580;23;20172;-88
2023/04/06 03:24:12;;;;;;;12.73;4.40;;;;;;;;;;6209732;23;20146;-88
2023/04/06 03:27:18;;;;;;;13.17;4.60;;;;;;;;;;6211804;23;20159;-90
2023/04/06 03:30:26;;;;;;;11.23;4.57;;;;;;;;;;6211402;23;20722;-93
2023/04/06 03:33:32;;;;;;;8.70;3.90;;;;;;;;;;6210598;23;20235;-91
2023/04/06 03:36:37;;;;;;;14.87;4.07;;;;;;;;;;6210023;23;20167;-89
2023/04/06 03:39:43;;;;;;;8.47;4.03;;;;;;;;;;6208678;23;20271;-92
2023/04/06 03:42:53;;;;;;;11.23;3.93;;;;;;;;;;6209370;23;20151;-92
2023/04/06 03:46:02;;;;;;;16.93;4.60;;;;;;;;;;6209224;23;20214;-93
2023/04/06 03:49:07;;;;;;;8.97;3.97;;;;;;;;;;6207995;23;20310;-89
2023/04/06 03:52:13;;;;;;;6.77;3.80;;;;;;;;;;6210096;23;20167;-89
2023/04/06 03:55:18;;;;;;;9.50;3.87;;;;;;;;;;6208817;23;20167;-90
2023/04/06 03:58:23;;;;;;;11.73;4.70;;;;;;;;;;6210621;23;20171;-91
2023/04/06 04:01:36;;;;;;;10.97;3.93;;;;;;;;;;6209857;23;20250;-90
2023/04/06 04:04:42;;;;;;;9.87;4.10;;;;;;;;;;6210485;23;20167;-88
2023/04/06 04:07:47;;;;;;;8.57;3.73;;;;;;;;;;6209427;23;20195;-93
2023/04/06 04:10:52;;;;;;;10.50;4.03;;;;;;;;;;6208960;23;20708;-90
2023/04/06 04:13:58;;;;;;;9.63;3.70;;;;;;;;;;6211748;23;20171;-90
2023/04/06 04:17:05;;;;;;;9.50;3.60;;;;;;;;;;6212495;23;20167;-92
2023/04/06 04:20:10;;;;;;;13.47;4.03;;;;;;;;;;6212022;23;20283;-92
2023/04/06 04:23:16;;;;;;;10.00;3.90;;;;;;;;;;6212605;23;20278;-92
2023/04/06 04:26:21;;;;;;;12.50;4.10;;;;;;;;;;6214042;23;20251;-91
2023/04/06 04:29:27;;;;;;;11.57;4.27;;;;;;;;;;6214484;23;20191;-90
2023/04/06 04:32:35;;;;;;;11.93;4.53;;;;;;;;;;6212618;23;20225;-91
2023/04/06 04:35:43;;;;;;;7.77;4.10;;;;;;;;;;6212792;23;20171;-90
2023/04/06 04:38:51;;;;;;;9.37;4.03;;;;;;;;;;6211753;23;20171;-91
2023/04/06 04:41:57;;;;;;;13.90;3.70;;;;;;;;;;6211688;23;20175;-89
2023/04/06 04:45:02;;;;;;;24.03;5.07;;;;;;;;;;6213498;23;20175;-91
2023/04/06 04:48:17;;;;;;;11.40;3.97;;;;;;;;;;6214501;23;20194;-91
2023/04/06 04:51:33;;;;;;;22.73;4.53;;;;;;;;;;6210643;23;20186;-91
2023/04/06 04:54:48;;;;;;;8.77;4.10;;;;;;;;;;6211323;23;20197;-90
2023/04/06 04:58:02;;;;;;;8.60;3.93;;;;;;;;;;6211030;23;20167;-89
2023/04/06 05:01:28;;;;;;;8.27;4.50;;;;;;;;;;6211839;23;20218;-89
2023/04/06 05:04:35;;;;;;;6.87;3.80;;;;;;;;;;6212055;23;20171;-90
2023/04/06 05:07:42;;;;;;;10.27;4.27;;;;;;;;;;6211384;23;20167;-90
2023/04/06 05:10:57;;;;;;;8.53;3.80;;;;;;;;;;6214583;23;20167;-88
2023/04/06 05:14:03;;;;;;;9.90;4.00;;;;;;;;;;6213608;23;20190;-91
2023/04/06 05:17:08;;;;;;;8.70;4.13;;;;;;;;;;6212247;23;20175;-92
2023/04/06 05:20:15;;;;;;;12.80;4.70;;;;;;;;;;6211259;23;20263;-89
2023/04/06 05:23:26;;;;;;;11.60;4.70;;;;;;;;;;6213480;23;20216;-91
2023/04/06 05:26:34;;;;;;;15.37;5.50;;;;;;;;;;6212756;23;20651;-89
2023/04/06 05:29:46;;;;;;;32.03;10.07;;;;;;;;;;6212763;23;20198;-88
2023/04/06 05:32:53;;;;;;;30.53;10.67;;;;;;;;;;6211201;23;20207;-90
2023/04/06 05:36:01;;;;;;;13.37;5.90;;;;;;;;;;6214307;23;20175;-88
2023/04/06 05:39:07;;;;;;;11.17;4.80;;;;;;;;;;6216797;23;20175;-92
2023/04/06 05:42:22;;;;;;;12.07;4.53;;;;;;;;;;6216392;23;20187;-92
2023/04/06 05:45:32;;;;;;;11.73;4.50;;;;;;;;;;6215420;23;20167;-92
2023/04/06 05:48:39;;;;;;;11.70;4.50;;;;;;;;;;6214750;23;20353;-91
2023/04/06 05:51:48;;;;;;;8.97;3.93;;;;;;;;;;6215571;23;20159;-91
2023/04/06 05:54:55;;;;;;;8.63;4.43;;;;;;;;;;6215432;23;20273;-90
2023/04/06 05:58:00;;;;;;;8.70;4.27;;;;;;;;;;6215684;23;20147;-92
2023/04/06 06:01:06;;;;;;;9.03;4.57;;;;;;;;;;6216028;23;20234;-93
2023/04/06 06:04:18;;;;;;;9.83;4.53;;;;;;;;;;6215079;23;20234;-91
2023/04/06 06:07:27;;;;;;;9.97;4.60;;;;;;;;;;6212905;23;20254;-92
2023/04/06 06:10:40;;;;;;;12.20;4.73;;;;;;;;;;6215001;23;20174;-90
2023/04/06 06:13:47;;;;;;;12.07;4.73;;;;;;;;;;6215217;23;20191;-94
2023/04/06 06:17:09;;;;;;;12.90;4.20;;;;;;;;;;6215512;23;20210;-90
2023/04/06 06:20:16;;;;;;;10.30;4.53;;;;;;;;;;6213557;23;20164;-93
2023/04/06 06:23:28;;;;;;;10.63;4.37;;;;;;;;;;6212911;23;20653;-94
2023/04/06 06:26:35;;;;;;;11.03;4.33;;;;;;;;;;6213138;23;20174;-93
2023/04/06 06:29:41;;;;;;;22.83;10.93;;;;;;;;;;6214042;23;20214;-92
2023/04/06 06:32:46;;;;;;;10.80;4.22;;;;;;;;;;6214491;23;20235;-90
2023/04/06 06:35:52;;;;;;;11.02;4.50;;;;;;;;;;6214172;23;20163;-93
2023/04/06 06:39:00;;;;;;;11.57;4.38;;;;;;;;;;6212654;23;20195;-93
2023/04/06 06:42:05;;;;;;;15.30;4.57;;;;;;;;;;6211484;23;20174;-92
2023/04/06 06:45:38;;;;;;;12.75;5.68;;;;;;;;;;6228245;23;20611;-93
2023/04/06 06:48:44;;;;;;;13.73;5.63;;;;;;;;;;6210925;23;20179;-91
2023/04/06 06:51:50;;;;;;;10.30;4.53;;;;;;;;;;6214935;23;20198;-93
2023/04/06 06:54:57;;;;;;;8.73;3.90;;;;;;;;;;6211796;23;20233;-92
2023/04/06 06:58:02;;;;;;;14.55;4.90;;;;;;;;;;6212122;23;20167;-91
2023/04/06 07:01:08;;;;;;;23.40;9.35;;;;;;;;;;6211446;23;20178;-89
2023/04/06 07:04:13;;;;;;;33.90;11.95;;;;;;;;;;6211757;23;20203;-94
2023/04/06 07:07:19;;;;;;;9.68;3.92;;;;;;;;;;6214783;23;20164;-89
2023/04/06 07:10:26;;;;;;;14.00;5.43;;;;;;;;;;6210085;23;20217;-91
2023/04/06 07:13:32;;;;;;;14.30;5.95;;;;;;;;;;6212648;23;20170;-94
2023/04/06 07:16:44;;;;;;;9.30;4.35;;;;;;;;;;6214637;23;20253;-90
2023/04/06 07:19:50;;;;;;;8.00;3.33;;;;;;;;;;6197982;23;20166;-91
2023/04/06 07:23:32;;;;;;;7.25;3.60;;;;;;;;;;6212626;23;20163;-91
2023/04/06 07:26:39;;;;;;;8.48;4.32;;;;;;;;;;6214522;23;20190;-93
2023/04/06 07:29:46;;;;;;;10.85;4.05;;;;;;;;;;6215903;23;20206;-93
2023/04/06 07:32:52;;;;;;;8.40;3.90;;;;;;;;;;6214855;23;20175;-92
2023/04/06 07:35:59;;;;;;;8.07;3.90;;;;;;;;;;6216789;23;20238;-93
2023/04/06 07:39:06;;;;;;;9.50;4.13;;;;;;;;;;6214994;23;20146;-93
2023/04/06 07:42:15;;;;;;;12.63;3.83;;;;;;;;;;6216875;23;20262;-92
2023/04/06 07:48:47;;;;;;;7.28;3.58;;;;;;;;;;6215655;23;20185;-91
2023/04/06 07:51:53;;;;;;;6.70;3.45;;;;;;;;;;6218197;23;20171;-91
2023/04/06 07:55:01;;;;;;;10.98;4.00;;;;;;;;;;6218853;23;20254;-91
2023/04/06 07:58:11;;;;;;;6.15;3.22;;;;;;;;;;6218784;23;20718;-91
2023/04/06 08:01:18;;;;;;;5.72;3.17;;;;;;;;;;6219069;23;20174;-91
2023/04/06 08:04:24;;;;;;;8.57;3.50;;;;;;;;;;6218920;23;20617;-93
2023/04/06 08:07:30;;;;;;;8.00;3.50;;;;;;;;;;6217537;23;20167;-93
2023/04/06 08:10:36;;;;;;;7.30;3.65;;;;;;;;;;6219059;23;20210;-92
2023/04/06 08:13:42;;;;;;;9.93;3.85;;;;;;;;;;6216310;23;20170;-94
2023/04/06 08:16:55;;;;;;;9.38;3.58;;;;;;;;;;6217340;23;20159;-94
2023/04/06 08:20:00;;;;;;;7.97;3.92;;;;;;;;;;6214903;23;20167;-92
2023/04/06 08:23:06;;;;;;;10.10;3.33;;;;;;;;;;6215676;23;20167;-91
2023/04/06 23:17:39;;;;;;;16.80;6.97;;;;;;;;;;6185929;22;20186;-93
2023/04/06 23:20:45;;;;;;;15.97;6.50;;;;;;;;;;6212975;23;20167;-93
2023/04/06 23:23:52;;;;;;;16.80;6.37;;;;;;;;;;6212929;23;20179;-91
2023/04/06 23:26:57;;;;;;;15.17;6.00;;;;;;;;;;6210420;23;20594;-92
2023/04/06 23:30:03;;;;;;;11.70;6.10;;;;;;;;;;6211236;23;20198;-93
2023/04/06 23:33:09;;;;;;;12.77;6.60;;;;;;;;;;6212999;23;20168;-92
2023/04/06 23:36:14;;;;;;;12.20;6.33;;;;;;;;;;6210704;23;20163;-90
2023/04/06 23:39:20;;;;;;;18.00;7.53;;;;;;;;;;6212997;23;20170;-94
2023/04/06 23:42:25;;;;;;;14.10;6.93;;;;;;;;;;6211442;23;20163;-93
2023/04/06 23:45:31;;;;;;;18.67;7.10;;;;;;;;;;6212693;23;20233;-93
2023/04/06 23:48:40;;;;;;;11.67;6.07;;;;;;;;;;6211976;23;20290;-92
2023/04/06 23:51:45;;;;;;;15.33;6.67;;;;;;;;;;6210155;23;20306;-90
2023/04/06 23:54:50;;;;;;;15.03;6.73;;;;;;;;;;6211058;23;20170;-91
2023/04/06 23:57:55;;;;;;;16.53;6.43;;;;;;;;;;6210355;23;20147;-91
